Time;durP1;ratioP1;P1;durP2;ratioP2;P2;SDS_P1;SDS_P2;PMS_P1;PMS_P2;Temp;Humidity;BMP_temperature;BMP_pressure;BME280_temperature;BME280_humidity;BME280_pressure;Samples;Min_cycle;Max_cycle;Signal;HPM_P1;HPM_P2
2020/12/03 00:01:19;;;;;;;16.02;6.75;;;23.50;71.30;;;;;;5108263;28;20046;-55
2020/12/03 00:03:47;;;;;;;14.65;5.72;;;23.50;71.30;;;;;;5103781;28;20057;-53
2020/12/03 00:06:27;;;;;;;28.77;6.05;;;23.50;71.20;;;;;;5107831;28;20026;-59
2020/12/03 00:08:58;;;;;;;13.57;5.57;;;23.60;71.30;;;;;;5106965;28;20085;-60
2020/12/03 00:11:29;;;;;;;15.00;6.28;;;23.60;71.20;;;;;;5106293;28;20028;-59
2020/12/03 00:13:58;;;;;;;22.03;6.67;;;23.60;71.20;;;;;;5086733;28;20023;-62
2020/12/03 00:16:30;;;;;;;14.27;5.03;;;23.60;71.20;;;;;;5106257;28;20030;-57
2020/12/03 00:18:58;;;;;;;15.07;5.88;;;23.60;71.30;;;;;;5107068;28;20071;-58
2020/12/03 00:21:48;;;;;;;12.80;5.38;;;23.60;71.10;;;;;;5072307;28;20043;-62
2020/12/03 00:24:22;;;;;;;17.73;5.95;;;23.60;71.10;;;;;;5106710;28;20496;-62
2020/12/03 00:26:50;;;;;;;13.52;5.10;;;23.60;71.10;;;;;;5106375;28;20549;-62
2020/12/03 00:29:18;;;;;;;19.23;5.75;;;23.60;71.20;;;;;;5086983;28;20390;-61
2020/12/03 00:31:48;;;;;;;18.42;6.07;;;23.60;71.30;;;;;;5104800;28;20146;-53
2020/12/03 00:34:17;;;;;;;12.95;5.82;;;23.60;71.30;;;;;;5109670;28;20508;-61
2020/12/03 00:36:45;;;;;;;14.85;5.18;;;23.60;71.20;;;;;;5110342;28;20105;-59
2020/12/03 00:39:15;;;;;;;14.30;5.38;;;23.60;71.20;;;;;;5092500;28;20033;-61
2020/12/03 00:41:50;;;;;;;13.35;4.85;;;23.60;71.30;;;;;;5091903;28;20028;-53
2020/12/03 00:44:18;;;;;;;11.73;4.55;;;23.60;71.40;;;;;;5109480;28;20023;-60
2020/12/03 00:46:46;;;;;;;11.45;4.90;;;23.60;71.20;;;;;;5111041;28;20024;-59
2020/12/03 00:49:19;;;;;;;17.92;4.90;;;23.60;71.30;;;;;;5110676;28;20419;-60
2020/12/03 00:51:50;;;;;;;15.93;5.15;;;23.60;71.30;;;;;;5109048;28;20419;-58
2020/12/03 00:54:21;;;;;;;16.17;5.00;;;23.70;71.30;;;;;;5110172;28;20028;-58
2020/12/03 00:56:48;;;;;;;15.75;5.57;;;23.70;71.30;;;;;;5092609;28;20046;-60
2020/12/03 00:59:16;;;;;;;10.73;4.07;;;23.70;71.20;;;;;;5109835;28;20122;-58
2020/12/03 01:01:44;;;;;;;10.82;4.43;;;23.70;71.30;;;;;;5110512;28;20114;-58
2020/12/03 01:04:11;;;;;;;11.73;4.60;;;23.70;71.40;;;;;;5109425;28;20019;-57
2020/12/03 01:06:39;;;;;;;12.02;4.72;;;23.70;71.40;;;;;;5111208;28;20112;-58
2020/12/03 01:09:06;;;;;;;13.30;4.32;;;23.70;71.60;;;;;;5110052;27;20022;-57
2020/12/03 01:11:34;;;;;;;12.52;4.90;;;23.70;72.20;;;;;;5092476;28;20114;-60
2020/12/03 01:14:01;;;;;;;13.20;4.38;;;23.70;71.90;;;;;;5088987;28;20077;-60
2020/12/03 01:16:28;;;;;;;10.75;3.83;;;23.70;71.60;;;;;;5090933;28;20085;-61
2020/12/03 01:18:56;;;;;;;13.90;4.10;;;23.70;72.10;;;;;;5106111;28;20048;-52
2020/12/03 01:21:24;;;;;;;11.32;4.13;;;23.70;71.90;;;;;;5091594;28;20035;-57
2020/12/03 01:23:52;;;;;;;10.68;3.90;;;23.70;71.90;;;;;;5107445;28;20088;-49
2020/12/03 01:26:29;;;;;;;12.88;4.50;;;23.80;71.90;;;;;;5111439;28;20043;-58
2020/12/03 01:28:57;;;;;;;12.60;3.90;;;23.70;71.90;;;;;;5092337;28;20114;-59
2020/12/03 01:31:31;;;;;;;10.98;4.03;;;23.80;71.90;;;;;;5110761;28;20023;-57
2020/12/03 01:34:00;;;;;;;11.30;3.53;;;23.80;71.90;;;;;;5107483;28;20030;-52
2020/12/03 01:36:28;;;;;;;11.07;4.10;;;23.80;71.90;;;;;;5111441;28;20110;-58
2020/12/03 01:38:55;;;;;;;11.93;4.28;;;23.80;71.90;;;;;;5090530;28;20094;-55
2020/12/03 01:41:24;;;;;;;13.40;4.10;;;23.80;71.90;;;;;;5109654;28;20119;-58
2020/12/03 01:43:52;;;;;;;12.35;4.20;;;23.80;71.90;;;;;;5106557;28;20028;-61
2020/12/03 01:46:19;;;;;;;11.68;3.65;;;23.80;71.90;;;;;;5109023;28;20015;-56
2020/12/03 01:49:09;;;;;;;17.13;3.42;;;23.80;71.70;;;;;;5109056;28;20096;-54
2020/12/03 01:51:42;;;;;;;15.55;3.47;;;23.80;71.40;;;;;;5090052;28;20047;-61
2020/12/03 01:54:16;;;;;;;12.20;4.05;;;23.80;71.50;;;;;;5106301;28;20493;-54
2020/12/03 01:57:04;;;;;;;10.15;3.30;;;23.80;71.50;;;;;;5108929;28;20367;-63
2020/12/03 01:59:37;;;;;;;11.88;3.53;;;23.80;71.60;;;;;;5108828;28;20058;-61
2020/12/03 02:02:07;;;;;;;12.88;3.83;;;23.90;71.50;;;;;;5087372;28;20039;-58
2020/12/03 02:04:35;;;;;;;12.32;3.55;;;23.80;71.30;;;;;;5109472;28;20420;-57
2020/12/03 02:07:06;;;;;;;10.55;3.15;;;23.80;71.20;;;;;;5108457;28;20042;-60
2020/12/03 02:09:34;;;;;;;9.50;3.30;;;23.90;71.20;;;;;;5091360;28;20107;-53
2020/12/03 02:12:01;;;;;;;8.05;3.10;;;23.80;71.20;;;;;;5105996;28;20046;-60
2020/12/03 02:14:29;;;;;;;12.73;3.88;;;23.90;71.20;;;;;;5108467;28;20023;-61
2020/12/03 02:16:57;;;;;;;16.02;3.83;;;23.80;71.30;;;;;;5109324;28;20075;-60
2020/12/03 02:19:33;;;;;;;9.88;3.60;;;23.80;71.30;;;;;;5106095;28;20028;-59
2020/12/03 02:22:06;;;;;;;8.73;3.42;;;23.80;71.30;;;;;;5105647;28;20023;-57
2020/12/03 02:24:38;;;;;;;11.93;3.65;;;23.80;71.20;;;;;;5109038;28;20390;-57
2020/12/03 02:27:09;;;;;;;17.08;4.30;;;23.80;71.30;;;;;;5108988;28;20038;-58
2020/12/03 02:29:37;;;;;;;11.43;3.92;;;23.80;71.40;;;;;;5108549;28;20035;-61
2020/12/03 02:32:07;;;;;;;8.82;3.30;;;23.80;71.30;;;;;;5105913;28;20150;-60
2020/12/03 02:34:35;;;;;;;9.45;3.70;;;23.80;71.40;;;;;;5109137;28;20015;-61
2020/12/03 02:37:04;;;;;;;13.85;3.80;;;23.80;71.40;;;;;;5108324;28;20023;-59
2020/12/03 02:39:34;;;;;;;13.00;4.15;;;23.70;71.40;;;;;;5090996;28;20066;-60
2020/12/03 02:42:04;;;;;;;12.07;3.75;;;23.70;71.50;;;;;;5105714;28;20164;-61
2020/12/03 02:44:31;;;;;;;10.98;3.30;;;23.70;71.50;;;;;;5108800;28;20058;-61
2020/12/03 02:46:59;;;;;;;10.68;3.38;;;23.60;71.60;;;;;;5106370;28;20031;-63
2020/12/03 02:49:27;;;;;;;9.55;3.35;;;23.60;71.70;;;;;;5109257;28;20104;-59
2020/12/03 02:51:54;;;;;;;9.65;3.50;;;23.60;71.70;;;;;;5106044;28;20101;-58
2020/12/03 02:54:22;;;;;;;9.15;3.13;;;23.60;71.80;;;;;;5108954;28;20028;-58
2020/12/03 02:56:49;;;;;;;11.77;3.97;;;23.60;71.80;;;;;;5108723;28;20027;-57
2020/12/03 02:59:16;;;;;;;13.57;3.55;;;23.60;72.90;;;;;;5108563;28;20327;-62
2020/12/03 03:01:44;;;;;;;13.23;3.83;;;23.60;72.10;;;;;;5106916;28;20066;-57
2020/12/03 03:04:11;;;;;;;14.77;4.85;;;23.60;72.10;;;;;;5107067;28;20055;-61
2020/12/03 03:06:39;;;;;;;15.23;3.55;;;23.60;72.00;;;;;;5108901;28;20103;-56
2020/12/03 03:09:07;;;;;;;8.20;2.80;;;23.60;71.90;;;;;;5108914;28;20028;-56
2020/12/03 03:11:35;;;;;;;11.60;3.85;;;23.60;71.90;;;;;;5108608;28;20084;-55
2020/12/03 03:14:04;;;;;;;10.93;3.13;;;23.60;72.00;;;;;;5105227;28;20039;-62
2020/12/03 03:16:32;;;;;;;9.25;3.70;;;23.70;72.10;;;;;;5107993;28;20028;-61
2020/12/03 03:19:01;;;;;;;13.60;4.13;;;23.70;72.00;;;;;;5106875;28;20080;-56
2020/12/03 03:21:28;;;;;;;11.65;4.05;;;23.70;72.50;;;;;;5107825;28;20041;-57
2020/12/03 03:23:56;;;;;;;11.45;3.75;;;23.70;72.00;;;;;;5105317;28;20488;-58
2020/12/03 03:26:24;;;;;;;19.27;3.75;;;23.70;71.90;;;;;;5107109;28;20391;-59
2020/12/03 03:28:52;;;;;;;13.25;3.63;;;23.70;71.90;;;;;;5089218;28;20440;-63
2020/12/03 03:31:20;;;;;;;13.07;3.88;;;23.70;72.00;;;;;;5108360;28;20127;-61
2020/12/03 03:33:48;;;;;;;11.60;3.63;;;23.70;72.00;;;;;;5104202;28;20019;-61
2020/12/03 03:36:16;;;;;;;10.23;3.05;;;23.80;72.10;;;;;;5107849;28;20107;-56
2020/12/03 03:38:43;;;;;;;8.68;3.25;;;23.80;72.00;;;;;;5107499;28;20024;-60
2020/12/03 03:41:11;;;;;;;11.65;3.08;;;23.70;72.00;;;;;;5107650;28;20394;-57
2020/12/03 03:43:38;;;;;;;12.50;3.60;;;23.80;72.10;;;;;;5111585;28;20085;-63
2020/12/03 03:46:06;;;;;;;11.52;3.75;;;23.70;72.10;;;;;;5109576;28;20140;-62
2020/12/03 03:48:34;;;;;;;9.25;3.20;;;23.70;72.10;;;;;;5110803;28;20016;-58
2020/12/03 03:51:01;;;;;;;13.43;4.30;;;23.70;72.20;;;;;;5111312;28;20024;-58
2020/12/03 03:53:29;;;;;;;10.35;3.35;;;23.70;72.30;;;;;;5076431;28;20386;-64
2020/12/03 03:55:56;;;;;;;10.95;2.90;;;23.60;72.40;;;;;;5111131;28;20016;-60
2020/12/03 03:58:24;;;;;;;12.75;3.35;;;23.60;72.40;;;;;;5111569;28;20023;-59
2020/12/03 04:00:51;;;;;;;11.27;3.17;;;23.60;72.50;;;;;;5111940;28;20061;-62
2020/12/03 04:03:21;;;;;;;12.85;3.78;;;23.60;72.50;;;;;;5111717;28;20028;-59
2020/12/03 04:05:51;;;;;;;15.45;3.47;;;23.60;72.60;;;;;;5111263;28;20427;-62
2020/12/03 04:08:23;;;;;;;12.40;2.95;;;23.60;72.70;;;;;;5112886;28;20431;-59
2020/12/03 04:10:52;;;;;;;12.18;2.90;;;23.60;72.80;;;;;;5115369;28;20027;-61
2020/12/03 04:13:21;;;;;;;10.52;3.38;;;23.60;72.80;;;;;;5115050;28;20874;-56
2020/12/03 04:15:49;;;;;;;12.27;3.75;;;23.60;72.90;;;;;;5115870;28;20528;-60
2020/12/03 04:18:17;;;;;;;15.38;4.53;;;23.50;72.90;;;;;;5115418;28;20047;-57
2020/12/03 04:20:45;;;;;;;14.43;3.80;;;23.50;73.00;;;;;;5115503;28;20125;-59
2020/12/03 04:23:12;;;;;;;11.90;3.58;;;23.50;73.10;;;;;;5115094;28;20016;-60
2020/12/03 04:25:40;;;;;;;11.15;3.88;;;23.50;73.10;;;;;;5115599;28;20077;-59
2020/12/03 04:28:07;;;;;;;12.82;3.22;;;23.50;73.10;;;;;;5115226;28;20019;-59
2020/12/03 04:30:34;;;;;;;14.50;3.78;;;23.50;73.30;;;;;;5115277;28;20100;-62
2020/12/03 04:33:02;;;;;;;12.88;3.55;;;23.50;73.30;;;;;;5114593;28;20062;-58
2020/12/03 04:35:29;;;;;;;10.82;3.47;;;23.40;73.30;;;;;;5096155;28;20038;-62
2020/12/03 04:37:57;;;;;;;12.45;3.72;;;23.40;73.40;;;;;;5114713;28;20031;-60
2020/12/03 04:40:37;;;;;;;11.48;2.95;;;23.40;73.60;;;;;;5114978;28;20032;-63
2020/12/03 04:43:19;;;;;;;10.20;3.97;;;23.40;73.50;;;;;;5114239;28;20019;-60
2020/12/03 04:46:05;;;;;;;8.90;3.63;;;23.40;73.40;;;;;;5114982;28;20028;-64
2020/12/03 04:48:53;;;;;;;12.05;3.78;;;23.40;73.50;;;;;;5114265;28;20020;-60
2020/12/03 04:51:45;;;;;;;9.65;3.25;;;23.40;73.40;;;;;;5114092;28;20023;-60
2020/12/03 04:54:24;;;;;;;10.30;3.53;;;23.40;73.50;;;;;;5114730;28;20020;-59
2020/12/03 04:57:13;;;;;;;12.38;3.28;;;23.40;73.40;;;;;;5114852;28;20546;-59
2020/12/03 05:00:15;;;;;;;10.02;3.25;;;23.40;73.40;;;;;;5114686;28;20381;-60
2020/12/03 05:03:11;;;;;;;19.50;4.38;;;23.50;73.50;;;;;;5012189;28;20089;-56
2020/12/03 05:05:47;;;;;;;19.00;5.65;;;23.30;74.00;;;;;;5113201;28;20426;-60
2020/12/03 05:08:39;;;;;;;19.83;4.68;;;23.20;74.70;;;;;;5095740;28;20035;-57
2020/12/03 05:11:19;;;;;;;11.93;3.55;;;23.20;74.90;;;;;;5114314;28;20027;-61
2020/12/03 05:13:51;;;;;;;23.60;5.05;;;23.30;75.10;;;;;;5114435;28;20476;-62
2020/12/03 05:16:45;;;;;;;21.65;4.63;;;23.20;75.50;;;;;;5114593;28;20027;-58
2020/12/03 05:19:52;;;;;;;15.77;5.10;;;23.30;74.60;;;;;;5112921;28;20043;-61
2020/12/03 05:22:22;;;;;;;19.30;5.30;;;23.40;74.10;;;;;;5080238;28;20035;-60
2020/12/03 05:24:49;;;;;;;25.10;5.13;;;23.30;74.80;;;;;;5082942;28;20027;-60
2020/12/03 05:27:28;;;;;;;22.52;5.10;;;23.30;75.10;;;;;;5111116;27;20051;-60
2020/12/03 05:30:03;;;;;;;24.00;5.85;;;23.30;75.00;;;;;;5110515;28;20083;-60
2020/12/03 05:32:32;;;;;;;18.60;4.43;;;23.30;75.10;;;;;;5094097;28;20114;-61
2020/12/03 05:35:00;;;;;;;16.15;4.47;;;23.20;75.10;;;;;;5107970;28;20020;-60
2020/12/03 05:37:31;;;;;;;22.35;5.07;;;23.20;75.10;;;;;;5111173;28;20032;-59
2020/12/03 05:39:59;;;;;;;21.45;4.90;;;23.20;74.80;;;;;;5110891;28;20057;-57
2020/12/03 05:42:31;;;;;;;33.50;6.25;;;23.10;75.40;;;;;;5110936;28;20019;-54
2020/12/03 05:45:13;;;;;;;26.42;5.72;;;23.10;75.50;;;;;;5107395;28;20412;-58
2020/12/03 05:47:44;;;;;;;23.00;4.05;;;23.20;75.10;;;;;;5107570;28;20023;-58
2020/12/03 05:50:17;;;;;;;19.70;5.07;;;23.20;75.20;;;;;;5108853;28;20039;-60
2020/12/03 05:53:04;;;;;;;18.95;4.50;;;23.20;75.40;;;;;;5110908;28;20188;-56
2020/12/03 05:55:34;;;;;;;19.70;4.30;;;23.20;75.10;;;;;;5106384;28;20019;-57
2020/12/03 05:58:21;;;;;;;19.40;4.15;;;23.30;74.90;;;;;;5111780;28;20032;-59
2020/12/03 06:00:50;;;;;;;19.85;5.70;;;23.30;74.60;;;;;;5089632;28;20043;-59
2020/12/03 06:03:50;;;;;;;20.58;4.65;;;23.30;74.60;;;;;;5110757;28;20422;-59
2020/12/03 06:06:44;;;;;;;21.75;5.30;;;23.30;74.60;;;;;;5070671;28;20059;-55
2020/12/03 06:09:24;;;;;;;26.73;5.85;;;23.10;75.00;;;;;;5106845;28;20024;-53
2020/12/03 06:11:51;;;;;;;14.95;5.32;;;23.20;75.10;;;;;;5109981;28;20115;-60
2020/12/03 06:14:34;;;;;;;19.02;5.25;;;23.40;74.60;;;;;;5091372;28;20027;-56
2020/12/03 06:17:17;;;;;;;29.45;5.78;;;23.50;74.30;;;;;;5106066;28;20546;-49
2020/12/03 06:19:54;;;;;;;22.50;5.47;;;23.50;74.10;;;;;;5107240;28;20424;-62
2020/12/03 06:22:39;;;;;;;25.58;6.38;;;23.40;74.20;;;;;;5107815;28;20091;-62
2020/12/03 06:25:34;;;;;;;18.58;5.72;;;23.30;74.90;;;;;;5105922;28;20034;-60
2020/12/03 06:28:29;;;;;;;19.20;5.05;;;23.30;75.10;;;;;;5109211;28;20450;-54
2020/12/03 06:30:56;;;;;;;22.27;6.10;;;23.30;74.80;;;;;;5107758;28;20023;-58
2020/12/03 06:33:27;;;;;;;20.20;4.85;;;23.20;75.20;;;;;;5110009;28;20019;-55
2020/12/03 06:35:57;;;;;;;26.10;6.28;;;23.30;74.70;;;;;;5106075;28;20027;-56
2020/12/03 06:38:28;;;;;;;20.85;4.82;;;23.30;74.50;;;;;;5110575;28;20098;-50
2020/12/03 06:41:02;;;;;;;20.48;4.80;;;23.20;75.00;;;;;;5107406;28;20072;-55
2020/12/03 06:43:53;;;;;;;25.02;5.97;;;23.20;74.60;;;;;;5110055;28;20049;-55
2020/12/03 06:46:46;;;;;;;29.50;6.30;;;23.20;74.80;;;;;;5106056;28;20038;-54
2020/12/03 06:49:31;;;;;;;23.38;6.13;;;23.30;74.80;;;;;;5108926;28;20107;-50
2020/12/03 06:52:23;;;;;;;23.25;6.13;;;23.30;74.90;;;;;;5105474;28;20023;-52
2020/12/03 06:55:13;;;;;;;21.40;8.25;;;23.30;74.40;;;;;;5107178;28;20026;-58
2020/12/03 06:57:47;;;;;;;23.70;6.22;;;23.40;75.40;;;;;;5109573;28;20055;-61
2020/12/03 07:00:27;;;;;;;20.17;6.50;;;23.30;74.00;;;;;;5110803;28;20045;-61
2020/12/03 07:03:12;;;;;;;22.17;5.75;;;23.20;74.20;;;;;;5106539;28;20050;-61
2020/12/03 07:05:57;;;;;;;17.42;5.82;;;23.10;74.50;;;;;;5088157;28;20031;-60
2020/12/03 07:08:40;;;;;;;24.92;6.35;;;23.00;75.00;;;;;;5106960;28;20024;-61
2020/12/03 07:11:19;;;;;;;24.48;5.32;;;22.90;75.10;;;;;;5108069;28;20051;-63
2020/12/03 07:14:21;;;;;;;22.38;4.93;;;22.90;75.40;;;;;;5109820;28;20407;-64
2020/12/03 07:17:25;;;;;;;24.13;5.53;;;22.90;75.50;;;;;;5106250;28;20039;-67
2020/12/03 07:20:15;;;;;;;26.33;6.95;;;23.00;75.40;;;;;;5107505;28;20035;-57
2020/12/03 07:23:09;;;;;;;29.08;5.60;;;22.90;75.50;;;;;;5090361;28;20019;-53
2020/12/03 07:25:41;;;;;;;22.13;5.15;;;23.00;75.70;;;;;;5105060;28;20039;-61
2020/12/03 07:28:36;;;;;;;23.52;4.95;;;23.00;75.80;;;;;;5109020;28;20036;-63
2020/12/03 07:31:13;;;;;;;22.48;5.55;;;22.90;75.70;;;;;;5107826;28;20476;-66
2020/12/03 07:34:16;;;;;;;31.55;6.57;;;22.90;76.00;;;;;;5108575;28;20027;-60
2020/12/03 07:37:02;;;;;;;28.83;5.70;;;23.00;76.00;;;;;;5002377;28;20046;-57
2020/12/03 07:39:35;;;;;;;33.88;5.57;;;23.00;76.00;;;;;;5101643;28;20036;-62
2020/12/03 07:42:22;;;;;;;25.38;4.85;;;23.00;76.30;;;;;;5108268;28;20023;-61
2020/12/03 07:44:54;;;;;;;28.92;5.32;;;23.00;76.50;;;;;;5104766;28;20080;-59
2020/12/03 07:47:24;;;;;;;31.70;5.70;;;23.10;76.50;;;;;;5108019;28;20119;-67
2020/12/03 07:49:55;;;;;;;38.97;7.78;;;23.00;76.20;;;;;;5109385;28;20016;-59
2020/12/03 07:52:29;;;;;;;21.52;6.20;;;22.90;76.30;;;;;;5109011;28;20032;-62
2020/12/03 07:55:22;;;;;;;22.10;5.53;;;22.90;76.60;;;;;;5109602;28;20027;-57
2020/12/03 07:58:02;;;;;;;26.35;6.20;;;23.00;76.80;;;;;;5110540;28;20035;-54
2020/12/03 08:00:35;;;;;;;20.95;5.00;;;22.90;77.20;;;;;;5110720;28;20118;-53
2020/12/03 08:03:04;;;;;;;30.25;6.75;;;22.90;77.10;;;;;;5112139;28;20016;-54
2020/12/03 08:05:40;;;;;;;35.78;7.38;;;22.90;76.90;;;;;;5111571;28;20099;-56
2020/12/03 08:08:23;;;;;;;34.15;6.88;;;22.90;76.80;;;;;;5110992;28;20149;-53
2020/12/03 08:10:54;;;;;;;30.45;6.30;;;22.90;77.30;;;;;;5111750;28;20028;-59
2020/12/03 08:13:36;;;;;;;18.80;5.57;;;22.80;77.50;;;;;;5111322;28;20087;-59
2020/12/03 08:16:10;;;;;;;27.00;5.72;;;22.90;77.50;;;;;;5094053;28;20508;-57
2020/12/03 08:19:00;;;;;;;33.65;6.55;;;22.90;77.70;;;;;;5111845;28;20055;-55
2020/12/03 08:21:41;;;;;;;26.55;6.93;;;22.90;77.60;;;;;;5111687;28;20031;-59
2020/12/03 08:24:30;;;;;;;24.42;6.85;;;22.90;78.10;;;;;;5111997;28;20023;-55
2020/12/03 08:27:16;;;;;;;30.42;7.53;;;22.90;78.20;;;;;;5112203;28;20019;-59
2020/12/03 08:29:44;;;;;;;28.88;5.70;;;22.90;78.20;;;;;;5111117;28;20032;-55
2020/12/03 08:32:11;;;;;;;31.75;6.63;;;23.00;79.40;;;;;;5111514;28;20034;-60
2020/12/03 08:34:44;;;;;;;26.90;5.45;;;23.00;79.60;;;;;;5111649;28;20024;-62
2020/12/03 08:37:23;;;;;;;34.17;6.22;;;23.00;78.80;;;;;;5111219;28;20324;-60
2020/12/03 08:39:53;;;;;;;40.03;8.20;;;23.00;78.30;;;;;;5111816;28;20027;-63
2020/12/03 08:42:21;;;;;;;34.85;7.13;;;23.00;78.60;;;;;;5111804;28;20478;-62
2020/12/03 08:44:52;;;;;;;40.45;7.32;;;23.00;79.50;;;;;;5111394;28;20118;-58
2020/12/03 08:47:30;;;;;;;29.33;6.72;;;23.00;79.30;;;;;;5111212;28;20343;-53
2020/12/03 08:50:00;;;;;;;37.65;6.70;;;22.90;80.60;;;;;;5111475;28;20110;-57
2020/12/03 08:52:31;;;;;;;39.55;5.93;;;23.00;80.50;;;;;;5111407;28;20032;-55
2020/12/03 08:55:07;;;;;;;29.23;6.53;;;22.90;80.30;;;;;;5113627;28;20038;-51
2020/12/03 08:57:43;;;;;;;33.28;6.38;;;23.00;82.80;;;;;;5115054;28;20413;-51
2020/12/03 09:00:24;;;;;;;22.25;5.88;;;22.90;83.00;;;;;;5115502;28;20059;-58
2020/12/03 09:02:52;;;;;;;33.42;7.32;;;23.10;83.10;;;;;;5114972;28;20023;-52
2020/12/03 09:05:20;;;;;;;31.90;6.50;;;23.30;83.50;;;;;;5114401;28;20019;-58
2020/12/03 09:07:52;;;;;;;24.00;5.72;;;23.40;82.60;;;;;;5096643;28;20019;-59
2020/12/03 09:10:25;;;;;;;28.45;6.93;;;23.20;81.70;;;;;;5115310;28;20027;-60
2020/12/03 09:12:52;;;;;;;25.33;6.82;;;23.30;83.00;;;;;;5114819;28;20055;-60
2020/12/03 09:15:20;;;;;;;26.15;7.47;;;23.30;82.60;;;;;;5114348;28;20036;-56
2020/12/03 09:17:59;;;;;;;30.52;6.43;;;23.30;84.00;;;;;;5114767;28;20039;-51
2020/12/03 09:20:27;;;;;;;32.80;6.72;;;23.40;81.10;;;;;;5114507;28;20452;-53
2020/12/03 09:22:57;;;;;;;30.95;7.55;;;23.40;84.10;;;;;;5114932;28;20023;-53
2020/12/03 09:25:26;;;;;;;33.83;6.90;;;23.50;85.30;;;;;;5114593;28;20027;-54
2020/12/03 09:27:55;;;;;;;33.67;6.93;;;23.60;83.40;;;;;;5114796;28;20465;-58
2020/12/03 09:30:26;;;;;;;32.53;7.22;;;23.60;85.60;;;;;;5114736;28;20034;-54
2020/12/03 09:33:02;;;;;;;30.30;7.63;;;23.60;84.90;;;;;;5112404;28;20023;-55
2020/12/03 09:35:31;;;;;;;44.03;7.97;;;23.60;84.10;;;;;;5105492;27;20120;-56
2020/12/03 09:38:05;;;;;;;35.05;7.78;;;23.50;84.60;;;;;;5107628;28;20032;-58
2020/12/03 09:40:34;;;;;;;41.85;7.53;;;23.50;84.00;;;;;;5109879;27;20040;-60
2020/12/03 09:43:03;;;;;;;33.40;6.55;;;23.60;85.30;;;;;;5111341;28;20019;-62
2020/12/03 09:45:39;;;;;;;23.92;7.78;;;23.60;83.90;;;;;;5087294;28;20055;-54
2020/12/03 09:48:17;;;;;;;30.10;6.40;;;23.50;84.80;;;;;;5109045;28;20069;-57
2020/12/03 09:51:10;;;;;;;22.42;6.40;;;23.60;84.20;;;;;;5110799;28;20031;-55
2020/12/03 09:53:46;;;;;;;26.08;6.10;;;23.60;83.90;;;;;;5089411;28;20388;-51
2020/12/03 09:56:13;;;;;;;35.28;6.53;;;23.60;84.00;;;;;;5107763;28;20462;-60
2020/12/03 09:58:41;;;;;;;26.40;6.85;;;23.60;84.30;;;;;;5108765;28;20168;-56
2020/12/03 10:01:10;;;;;;;27.02;6.97;;;23.60;83.30;;;;;;5111313;28;20032;-62
2020/12/03 10:04:02;;;;;;;26.55;5.97;;;23.60;82.80;;;;;;5104164;28;20032;-56
2020/12/03 10:06:46;;;;;;;26.35;6.05;;;23.60;82.40;;;;;;5109616;28;20495;-60
2020/12/03 10:09:35;;;;;;;25.58;6.40;;;23.60;82.20;;;;;;5090840;28;20102;-58
2020/12/03 10:12:34;;;;;;;24.25;6.38;;;23.60;81.70;;;;;;5108918;28;20027;-59
2020/12/03 10:15:25;;;;;;;21.13;5.18;;;23.60;81.80;;;;;;5104612;28;20015;-60
2020/12/03 10:17:52;;;;;;;16.02;5.20;;;23.50;81.80;;;;;;5108154;28;20055;-61
2020/12/03 10:20:21;;;;;;;22.98;5.78;;;23.50;81.70;;;;;;5108987;28;20110;-61
2020/12/03 10:23:02;;;;;;;18.00;4.78;;;23.50;81.50;;;;;;5108965;28;20035;-54
2020/12/03 10:25:32;;;;;;;24.40;6.15;;;23.50;81.40;;;;;;5073715;28;20052;-59
2020/12/03 10:28:28;;;;;;;25.80;5.97;;;23.50;81.30;;;;;;5110151;28;20128;-57
2020/12/03 10:30:57;;;;;;;17.35;5.30;;;23.50;81.20;;;;;;5110192;28;20108;-51
2020/12/03 10:33:35;;;;;;;21.65;6.10;;;23.50;81.20;;;;;;5107315;28;20028;-60
2020/12/03 10:36:11;;;;;;;20.80;6.10;;;23.50;81.30;;;;;;5111177;28;20542;-60
2020/12/03 10:38:48;;;;;;;28.42;6.90;;;23.50;81.20;;;;;;5109675;28;20035;-64
2020/12/03 10:41:16;;;;;;;24.63;7.07;;;23.50;81.10;;;;;;5110079;28;20036;-61
2020/12/03 10:43:51;;;;;;;17.92;6.20;;;23.50;81.70;;;;;;5104583;28;20055;-62
2020/12/03 10:46:24;;;;;;;23.38;6.50;;;23.50;81.00;;;;;;5108356;28;20027;-65
2020/12/03 10:48:59;;;;;;;20.75;5.82;;;23.50;81.00;;;;;;5091612;28;20109;-57
2020/12/03 10:51:27;;;;;;;19.60;6.45;;;23.40;81.00;;;;;;5091476;28;20030;-57
2020/12/03 10:53:56;;;;;;;23.85;6.78;;;23.40;81.00;;;;;;5106592;28;20071;-54
2020/12/03 10:56:36;;;;;;;20.95;7.70;;;23.40;80.90;;;;;;5110057;28;20026;-53
2020/12/03 10:59:16;;;;;;;18.73;7.30;;;23.40;80.90;;;;;;5108476;28;20212;-53
2020/12/03 11:01:50;;;;;;;24.23;7.20;;;23.40;80.80;;;;;;5106639;28;20112;-59
2020/12/03 11:04:19;;;;;;;24.55;7.88;;;23.40;80.70;;;;;;5105817;28;20065;-57
2020/12/03 11:06:47;;;;;;;19.95;7.78;;;23.40;80.70;;;;;;5091744;28;20027;-58
2020/12/03 11:09:22;;;;;;;22.48;8.13;;;23.40;80.50;;;;;;5109929;28;20020;-51
2020/12/03 11:11:50;;;;;;;19.58;8.05;;;23.40;80.50;;;;;;5091557;28;20389;-60
2020/12/03 11:14:18;;;;;;;24.17;8.90;;;23.40;80.50;;;;;;5106881;28;20100;-54
2020/12/03 11:17:23;;;;;;;22.85;8.68;;;23.40;80.50;;;;;;5109611;28;20024;-56
2020/12/03 11:19:56;;;;;;;23.70;11.82;;;23.40;80.40;;;;;;5072596;28;20095;-56
2020/12/03 11:22:36;;;;;;;19.33;10.27;;;23.40;80.40;;;;;;5110237;28;20035;-55
2020/12/03 11:25:14;;;;;;;26.92;9.25;;;23.40;80.40;;;;;;5105209;28;20047;-57
2020/12/03 11:27:44;;;;;;;20.23;7.47;;;23.30;80.60;;;;;;5109379;28;20131;-56
2020/12/03 11:30:20;;;;;;;18.77;8.45;;;23.40;80.50;;;;;;5108457;28;20059;-61
2020/12/03 11:32:56;;;;;;;22.80;8.57;;;23.40;80.40;;;;;;5106950;28;20027;-48
2020/12/03 11:35:27;;;;;;;20.35;8.45;;;23.40;80.20;;;;;;5103517;28;20146;-53
2020/12/03 11:37:59;;;;;;;18.80;8.65;;;23.40;80.10;;;;;;5106931;28;20073;-58
2020/12/03 11:40:40;;;;;;;25.08;9.10;;;23.40;80.10;;;;;;5108821;28;20063;-60
2020/12/03 11:46:07;;;;;;;19.33;8.43;;;23.40;79.90;;;;;;5106635;28;20027;-56
2020/12/03 11:48:39;;;;;;;19.83;7.35;;;23.40;80.00;;;;;;5107076;28;20020;-63
2020/12/03 11:51:06;;;;;;;17.52;7.05;;;23.40;79.80;;;;;;5090525;28;20057;-60
2020/12/03 11:53:34;;;;;;;19.65;7.55;;;23.40;79.80;;;;;;5105937;28;20022;-59
2020/12/03 11:56:01;;;;;;;17.88;7.13;;;23.40;79.70;;;;;;5109463;28;20028;-62
2020/12/03 11:58:30;;;;;;;17.40;7.95;;;23.40;79.60;;;;;;5109914;28;20042;-58
2020/12/03 12:01:14;;;;;;;15.82;6.80;;;23.40;79.60;;;;;;5107257;28;20455;-60
2020/12/03 12:03:44;;;;;;;19.33;8.18;;;23.40;79.50;;;;;;5105756;28;20493;-57
2020/12/03 12:06:29;;;;;;;26.52;8.88;;;23.40;79.60;;;;;;5109875;28;20385;-59
2020/12/03 12:09:17;;;;;;;18.52;6.43;;;23.40;79.60;;;;;;5109072;28;20030;-60
2020/12/03 12:11:48;;;;;;;24.02;7.97;;;23.40;79.60;;;;;;5109571;28;20536;-62
2020/12/03 12:14:15;;;;;;;15.85;7.18;;;23.40;79.60;;;;;;5087043;28;20047;-60
2020/12/03 12:16:42;;;;;;;22.60;7.65;;;23.40;79.50;;;;;;5109244;28;20032;-64
2020/12/03 12:19:10;;;;;;;16.98;6.97;;;23.40;79.40;;;;;;5109060;28;20427;-62
2020/12/03 12:21:37;;;;;;;23.88;7.95;;;23.40;79.40;;;;;;5108290;28;20070;-62
2020/12/03 12:24:05;;;;;;;15.48;6.82;;;23.40;79.40;;;;;;5105348;28;20016;-62
2020/12/03 12:26:32;;;;;;;20.27;8.05;;;23.40;79.40;;;;;;5109501;28;20027;-60
2020/12/03 12:29:01;;;;;;;15.45;7.47;;;23.40;79.40;;;;;;5110099;28;20019;-62
2020/12/03 12:31:28;;;;;;;21.60;7.25;;;23.40;79.40;;;;;;5094183;28;20521;-57
2020/12/03 12:33:55;;;;;;;19.90;7.60;;;23.40;79.40;;;;;;5114658;28;20528;-61
2020/12/03 12:36:23;;;;;;;14.35;7.18;;;23.40;79.20;;;;;;5115261;28;20027;-60
2020/12/03 12:38:51;;;;;;;16.52;6.30;;;23.40;79.10;;;;;;5096791;28;20031;-61
2020/12/03 12:41:18;;;;;;;15.52;6.68;;;23.40;79.20;;;;;;5115758;28;20430;-59
2020/12/03 12:43:46;;;;;;;18.08;7.30;;;23.40;79.20;;;;;;5115678;28;20031;-62
2020/12/03 12:46:13;;;;;;;17.73;6.75;;;23.40;79.20;;;;;;5115597;28;20024;-60
2020/12/03 12:48:40;;;;;;;15.95;7.00;;;23.30;79.20;;;;;;5115887;28;20016;-60
2020/12/03 12:51:08;;;;;;;16.08;7.20;;;23.30;79.20;;;;;;5115112;28;20536;-58
2020/12/03 12:53:35;;;;;;;18.05;7.45;;;23.30;79.30;;;;;;5115601;28;20367;-60
2020/12/03 12:56:03;;;;;;;16.77;7.57;;;23.30;79.30;;;;;;5115992;28;20019;-60
2020/12/03 12:58:30;;;;;;;15.68;6.50;;;23.30;79.30;;;;;;5097323;28;20386;-61
2020/12/03 13:00:58;;;;;;;16.63;7.18;;;23.30;79.30;;;;;;5106991;28;20824;-54
2020/12/03 13:03:26;;;;;;;15.88;7.00;;;23.30;79.40;;;;;;5126380;27;20097;-60
2020/12/03 13:05:56;;;;;;;15.48;6.80;;;23.30;79.60;;;;;;5111935;28;20359;-55
2020/12/03 13:08:24;;;;;;;13.82;5.85;;;23.20;79.40;;;;;;5113152;27;20092;-59
2020/12/03 13:10:51;;;;;;;17.67;7.95;;;23.20;79.40;;;;;;5112303;28;21594;-55
2020/12/03 13:13:26;;;;;;;15.90;7.03;;;23.20;79.50;;;;;;5110151;28;20110;-62
2020/12/03 13:15:53;;;;;;;12.57;6.38;;;23.20;79.50;;;;;;5095641;28;20030;-62